Time;durP1;ratioP1;P1;durP2;ratioP2;P2;SDS_P1;SDS_P2;PMS_P1;PMS_P2;Temp;Humidity;BMP_temperature;BMP_pressure;BME280_temperature;BME280_humidity;BME280_pressure;Samples;Min_cycle;Max_cycle;Signal;HPM_P1;HPM_P2
2023/07/10 00:00:06;;;;;;;33.92;15.18;;;18.90;99.90;;;;;;5083856;28;20123;-77
2023/07/10 00:02:31;;;;;;;31.90;15.43;;;18.90;99.90;;;;;;5096783;28;20535;-78
2023/07/10 00:04:57;;;;;;;28.10;16.25;;;18.90;99.90;;;;;;5093793;28;20036;-77
2023/07/10 00:07:22;;;;;;;33.03;16.80;;;18.90;99.90;;;;;;5095985;28;20093;-78
2023/07/10 00:09:49;;;;;;;32.78;15.88;;;18.90;99.90;;;;;;5092498;28;20081;-77
2023/07/10 00:12:20;;;;;;;27.95;14.75;;;18.80;99.90;;;;;;5091776;28;20042;-78
2023/07/10 00:14:46;;;;;;;24.27;15.45;;;18.80;99.90;;;;;;5112403;28;20041;-77
2023/07/10 00:17:14;;;;;;;37.03;16.30;;;18.80;99.90;;;;;;5092678;28;20371;-78
2023/07/10 00:19:41;;;;;;;38.25;17.90;;;18.80;99.90;;;;;;5086262;28;20501;-77
2023/07/10 00:22:10;;;;;;;32.88;17.60;;;18.90;99.90;;;;;;5082213;28;20644;-76
2023/07/10 00:24:35;;;;;;;34.35;17.48;;;18.90;99.90;;;;;;5093467;28;20094;-77
2023/07/10 00:27:01;;;;;;;30.10;15.70;;;18.90;99.90;;;;;;5075709;28;20040;-77
2023/07/10 00:29:31;;;;;;;31.08;17.20;;;18.90;99.90;;;;;;5084135;28;20127;-77
2023/07/10 00:31:58;;;;;;;32.67;17.75;;;18.80;99.90;;;;;;5076407;28;20374;-77
2023/07/10 00:34:25;;;;;;;31.57;17.03;;;18.80;99.90;;;;;;5075331;28;20501;-77
2023/07/10 00:36:52;;;;;;;30.35;17.48;;;18.80;99.90;;;;;;5092660;28;20486;-78
2023/07/10 00:39:18;;;;;;;28.45;16.40;;;18.80;99.90;;;;;;5088100;28;20073;-78
2023/07/10 00:41:48;;;;;;;28.45;17.40;;;18.70;99.90;;;;;;5078743;28;20091;-77
2023/07/10 00:44:14;;;;;;;32.30;19.60;;;18.70;99.90;;;;;;5089288;28;20039;-77
2023/07/10 00:46:50;;;;;;;37.53;20.80;;;18.70;99.90;;;;;;5092501;28;20044;-77
2023/07/10 00:49:36;;;;;;;38.08;22.25;;;18.70;99.90;;;;;;5087510;28;20090;-77
2023/07/10 00:52:26;;;;;;;40.10;23.13;;;18.70;99.90;;;;;;5079741;28;20047;-78
2023/07/10 00:54:57;;;;;;;45.67;25.42;;;18.80;99.90;;;;;;5084672;28;20044;-77
2023/07/10 00:57:33;;;;;;;45.50;26.00;;;18.70;99.90;;;;;;5081736;28;20055;-78
2023/07/10 01:00:00;;;;;;;50.47;27.85;;;18.70;99.90;;;;;;5080386;28;20036;-77
2023/07/10 01:02:25;;;;;;;48.77;28.33;;;18.70;99.90;;;;;;5084393;28;20032;-77
2023/07/10 01:04:58;;;;;;;58.95;30.55;;;18.70;99.90;;;;;;5100368;28;20062;-78
2023/07/10 01:07:27;;;;;;;59.40;28.13;;;18.70;99.90;;;;;;5090134;28;20130;-76
2023/07/10 01:10:00;;;;;;;58.15;29.48;;;18.70;99.90;;;;;;5087513;28;20051;-78
2023/07/10 01:12:28;;;;;;;56.13;28.33;;;18.70;99.90;;;;;;5104573;28;20044;-78
2023/07/10 01:14:53;;;;;;;60.42;30.38;;;18.60;99.90;;;;;;5098082;28;20044;-77
2023/07/10 01:17:19;;;;;;;60.35;31.13;;;18.60;99.90;;;;;;5080192;28;20047;-77
2023/07/10 01:19:46;;;;;;;56.70;30.25;;;18.60;99.90;;;;;;5085010;28;20074;-76
2023/07/10 01:22:13;;;;;;;63.13;31.33;;;18.50;99.90;;;;;;5120715;28;20039;-77
2023/07/10 01:24:38;;;;;;;61.13;29.63;;;18.50;99.90;;;;;;5102429;28;20036;-76
2023/07/10 01:27:07;;;;;;;53.40;27.48;;;18.50;99.90;;;;;;5091548;28;20123;-76
2023/07/10 01:29:59;;;;;;;39.20;23.08;;;18.50;99.90;;;;;;5084751;28;20446;-76
2023/07/10 01:32:27;;;;;;;43.45;23.92;;;18.50;99.90;;;;;;5079570;28;20044;-76
2023/07/10 01:34:56;;;;;;;44.15;24.00;;;18.40;99.90;;;;;;5087625;28;20104;-76
2023/07/10 01:37:22;;;;;;;42.35;23.30;;;18.40;99.90;;;;;;5097025;28;20118;-76
2023/07/10 01:39:51;;;;;;;47.20;24.25;;;18.40;99.90;;;;;;5104881;28;20494;-77
2023/07/10 01:42:17;;;;;;;44.65;24.20;;;18.40;99.90;;;;;;5093731;28;20085;-77
2023/07/10 01:44:45;;;;;;;37.50;25.77;;;18.40;99.90;;;;;;5093309;28;20052;-77
2023/07/10 01:47:13;;;;;;;38.58;24.30;;;18.40;99.90;;;;;;5114086;28;20040;-78
2023/07/10 01:49:48;;;;;;;47.00;24.90;;;18.30;99.90;;;;;;5096848;28;20479;-77
2023/07/10 01:52:17;;;;;;;42.03;23.27;;;18.30;99.90;;;;;;5100298;27;20048;-77
2023/07/10 01:54:43;;;;;;;42.67;23.02;;;18.30;99.90;;;;;;5101307;28;20051;-77
2023/07/10 01:57:11;;;;;;;38.88;23.55;;;18.30;99.90;;;;;;5088159;28;20040;-77
2023/07/10 01:59:37;;;;;;;;;;;18.30;99.90;;;;;;5084819;28;20406;-78
2023/07/10 02:02:03;;;;;;;37.20;23.45;;;18.30;99.90;;;;;;5085062;28;19925;-77
2023/07/10 02:04:29;;;;;;;40.15;24.30;;;18.30;99.90;;;;;;5085861;28;20032;-76
2023/07/10 02:06:55;;;;;;;34.85;22.65;;;18.30;99.90;;;;;;5096122;28;20044;-77
2023/07/10 02:09:26;;;;;;;40.80;24.50;;;18.30;99.90;;;;;;5094929;28;20044;-77
2023/07/10 02:11:53;;;;;;;40.67;22.95;;;18.30;99.90;;;;;;5098420;28;20378;-77
2023/07/10 02:14:20;;;;;;;39.63;23.73;;;18.30;99.90;;;;;;5089862;28;20088;-77
2023/07/10 02:16:46;;;;;;;36.15;21.75;;;18.30;99.90;;;;;;5093680;28;20040;-78
2023/07/10 02:19:12;;;;;;;32.15;21.95;;;18.20;99.90;;;;;;5079628;28;20044;-77
2023/07/10 02:21:37;;;;;;;32.60;20.85;;;18.20;99.90;;;;;;5093321;28;20032;-78
2023/07/10 02:24:04;;;;;;;34.95;21.45;;;18.20;99.90;;;;;;5098236;28;20087;-77
2023/07/10 02:26:30;;;;;;;40.45;23.20;;;18.20;99.90;;;;;;5107208;28;20036;-77
2023/07/10 02:28:57;;;;;;;36.78;21.65;;;18.20;99.90;;;;;;5091837;28;20097;-77
2023/07/10 02:31:23;;;;;;;40.13;22.98;;;18.20;99.90;;;;;;5097437;28;20087;-77
2023/07/10 02:33:48;;;;;;;36.97;21.85;;;18.20;99.90;;;;;;5097615;28;20044;-77
2023/07/10 02:36:14;;;;;;;37.17;21.60;;;18.20;99.90;;;;;;5095422;28;20043;-76
2023/07/10 02:38:40;;;;;;;34.97;20.50;;;18.20;99.90;;;;;;5099174;28;20036;-77
2023/07/10 02:41:06;;;;;;;34.85;19.48;;;18.20;99.90;;;;;;5115889;28;20395;-78
2023/07/10 02:43:31;;;;;;;34.97;18.38;;;18.20;99.90;;;;;;5095564;28;20498;-78
2023/07/10 02:45:57;;;;;;;30.60;17.90;;;18.20;99.90;;;;;;5105087;28;20094;-76
2023/07/10 02:48:23;;;;;;;29.25;17.15;;;18.20;99.90;;;;;;5110174;28;20045;-77
2023/07/10 02:50:49;;;;;;;29.08;17.33;;;18.20;99.90;;;;;;5108916;28;20048;-77
2023/07/10 02:53:14;;;;;;;31.65;16.92;;;18.10;99.90;;;;;;5091903;28;20173;-77
2023/07/10 02:55:40;;;;;;;23.63;15.93;;;18.20;99.90;;;;;;5103455;28;20044;-77
2023/07/10 02:58:07;;;;;;;27.15;15.93;;;18.10;99.90;;;;;;5095169;28;20043;-78
2023/07/10 03:00:33;;;;;;;31.75;16.38;;;18.20;99.90;;;;;;5091721;28;20044;-77
2023/07/10 03:02:59;;;;;;;25.52;16.40;;;18.10;99.90;;;;;;5097333;28;20063;-77
2023/07/10 03:05:25;;;;;;;24.35;15.90;;;18.10;99.90;;;;;;5089704;28;20441;-77
2023/07/10 03:07:51;;;;;;;23.70;15.98;;;18.10;99.90;;;;;;5073066;28;20124;-77
2023/07/10 03:10:18;;;;;;;29.58;16.67;;;18.10;99.90;;;;;;5101215;28;20071;-77
2023/07/10 03:12:44;;;;;;;27.25;16.38;;;18.10;99.90;;;;;;5092998;28;20052;-77
2023/07/10 03:15:10;;;;;;;36.35;17.50;;;18.10;99.90;;;;;;5090305;28;20113;-77
2023/07/10 03:17:36;;;;;;;25.60;15.80;;;18.10;99.90;;;;;;5077196;28;20044;-77
2023/07/10 03:20:03;;;;;;;31.88;13.40;;;18.10;99.90;;;;;;5095544;28;20043;-78
2023/07/10 03:22:29;;;;;;;26.45;14.25;;;18.20;99.90;;;;;;5092347;28;20124;-77
2023/07/10 03:24:55;;;;;;;24.25;14.60;;;18.20;99.90;;;;;;5087762;28;20074;-76
2023/07/10 03:27:22;;;;;;;21.98;12.45;;;18.10;99.90;;;;;;5086374;28;20082;-77
2023/07/10 03:29:47;;;;;;;24.85;13.32;;;18.10;99.90;;;;;;5087016;28;20512;-77
2023/07/10 03:32:13;;;;;;;23.08;14.13;;;18.10;99.90;;;;;;5090430;28;20040;-76
2023/07/10 03:34:39;;;;;;;25.02;13.18;;;18.10;99.90;;;;;;5076211;28;20507;-77
2023/07/10 03:37:05;;;;;;;19.05;12.13;;;18.00;99.90;;;;;;5099605;28;20127;-76
2023/07/10 03:39:31;;;;;;;23.67;12.57;;;18.10;99.90;;;;;;5092531;28;20047;-76
2023/07/10 03:41:57;;;;;;;20.05;11.80;;;18.10;99.90;;;;;;5087918;28;20040;-77
2023/07/10 03:44:23;;;;;;;24.38;11.85;;;18.10;99.90;;;;;;5100890;28;20052;-77
2023/07/10 03:46:48;;;;;;;22.05;13.48;;;18.10;99.90;;;;;;5091214;28;20173;-77
2023/07/10 03:49:14;;;;;;;20.05;12.75;;;18.10;99.90;;;;;;5085828;28;20113;-77
2023/07/10 03:51:40;;;;;;;18.48;13.02;;;18.10;99.90;;;;;;5083166;28;20032;-77
2023/07/10 03:54:07;;;;;;;17.85;13.27;;;18.10;99.90;;;;;;5089069;28;20036;-78
2023/07/10 03:56:33;;;;;;;24.95;12.68;;;18.10;99.90;;;;;;5083532;28;20045;-76
2023/07/10 03:58:59;;;;;;;19.05;12.52;;;18.10;99.90;;;;;;5099700;28;20043;-77
2023/07/10 04:01:24;;;;;;;19.17;12.85;;;18.10;99.90;;;;;;5085603;28;20036;-77
2023/07/10 04:03:50;;;;;;;21.23;13.32;;;18.10;99.90;;;;;;5092787;28;20068;-77
2023/07/10 04:06:17;;;;;;;20.67;13.20;;;18.10;99.90;;;;;;5101786;28;20123;-77
2023/07/10 04:08:44;;;;;;;22.35;13.95;;;18.00;99.90;;;;;;5098414;28;20581;-77
2023/07/10 04:11:21;;;;;;;20.40;11.30;;;18.10;99.90;;;;;;5090081;28;20051;-77
2023/07/10 04:13:49;;;;;;;18.27;11.63;;;18.10;99.90;;;;;;5089232;28;20069;-77
2023/07/10 04:16:17;;;;;;;16.77;10.38;;;18.10;99.90;;;;;;5092841;28;20048;-77
2023/07/10 04:18:45;;;;;;;17.48;9.23;;;18.10;99.90;;;;;;5077951;28;20048;-77
2023/07/10 04:21:21;;;;;;;21.00;10.02;;;18.10;99.90;;;;;;5076715;28;20033;-77
2023/07/10 04:23:47;;;;;;;19.08;10.05;;;18.10;99.90;;;;;;5084656;28;20036;-77
2023/07/10 04:26:25;;;;;;;15.18;9.60;;;18.10;99.90;;;;;;5098258;28;20102;-78
2023/07/10 04:28:53;;;;;;;15.32;9.27;;;18.10;99.90;;;;;;5074394;28;20092;-76
2023/07/10 04:31:20;;;;;;;12.57;8.38;;;18.10;99.90;;;;;;5083171;28;20043;-76
2023/07/10 04:33:46;;;;;;;16.67;8.40;;;18.10;99.90;;;;;;5096369;28;20047;-76
2023/07/10 04:36:12;;;;;;;13.23;7.70;;;18.20;99.90;;;;;;5101621;28;20048;-77
2023/07/10 04:38:38;;;;;;;11.63;7.18;;;18.10;99.90;;;;;;5100727;28;20209;-76
2023/07/10 04:41:06;;;;;;;10.38;6.13;;;18.10;99.90;;;;;;5095193;28;20048;-75
2023/07/10 04:43:32;;;;;;;;;;;18.20;99.90;;;;;;5103214;28;20070;-77
2023/07/10 04:46:00;;;;;;;17.70;6.57;;;18.10;99.90;;;;;;5090211;28;19980;-76
2023/07/10 04:48:26;;;;;;;;;;;18.10;99.90;;;;;;5094974;28;20032;-76
2023/07/10 04:50:53;;;;;;;10.88;5.95;;;18.10;99.90;;;;;;5100107;28;19920;-77
2023/07/10 04:53:20;;;;;;;18.95;6.38;;;18.20;99.90;;;;;;5104896;28;20028;-77
2023/07/10 04:55:48;;;;;;;13.02;6.55;;;18.30;99.90;;;;;;5102093;28;20047;-77
2023/07/10 04:58:13;;;;;;;12.68;6.82;;;18.20;99.90;;;;;;5084648;28;20068;-77
2023/07/10 05:00:39;;;;;;;12.77;7.28;;;18.20;99.90;;;;;;5101841;28;20043;-77
2023/07/10 05:03:06;;;;;;;11.70;6.65;;;18.20;99.90;;;;;;5096644;28;20044;-77
2023/07/10 05:05:32;;;;;;;10.05;6.55;;;18.20;99.90;;;;;;5101824;28;20067;-76
2023/07/10 05:07:58;;;;;;;14.38;6.50;;;18.20;99.90;;;;;;5099727;28;20032;-77
2023/07/10 05:10:24;;;;;;;11.75;6.53;;;18.20;99.90;;;;;;5105414;28;20057;-77
2023/07/10 05:12:50;;;;;;;12.63;6.85;;;18.20;99.90;;;;;;5103968;28;20036;-77
2023/07/10 05:15:15;;;;;;;13.15;6.15;;;18.20;99.90;;;;;;5075928;28;20044;-77
2023/07/10 05:17:42;;;;;;;14.77;6.88;;;18.30;99.90;;;;;;5094033;28;20044;-77
2023/07/10 05:20:08;;;;;;;10.88;5.95;;;18.30;99.90;;;;;;5099863;28;20040;-75
2023/07/10 05:22:33;;;;;;;12.88;5.57;;;18.30;99.90;;;;;;5084027;28;20097;-77
2023/07/10 05:24:59;;;;;;;14.43;5.20;;;18.30;99.90;;;;;;5090999;28;20044;-77
2023/07/10 05:27:25;;;;;;;9.68;5.65;;;18.40;99.90;;;;;;5095041;28;20049;-77
2023/07/10 05:29:51;;;;;;;10.85;5.63;;;18.30;99.90;;;;;;5100262;28;20401;-77
2023/07/10 05:32:16;;;;;;;16.50;5.90;;;18.40;99.90;;;;;;5088070;28;20082;-77
2023/07/10 05:34:42;;;;;;;12.80;5.18;;;18.40;99.90;;;;;;5096580;28;20631;-76
2023/07/10 05:37:08;;;;;;;10.48;5.85;;;18.40;99.90;;;;;;5093112;28;20547;-76
2023/07/10 05:39:34;;;;;;;9.80;5.97;;;18.50;99.90;;;;;;5085466;28;20036;-76
2023/07/10 05:41:59;;;;;;;10.77;5.00;;;18.50;99.90;;;;;;5102036;28;20125;-77
2023/07/10 05:44:26;;;;;;;11.52;4.93;;;18.60;99.90;;;;;;5094247;28;20047;-78
2023/07/10 05:46:55;;;;;;;11.15;4.80;;;18.60;99.90;;;;;;5089724;28;20067;-78
2023/07/10 05:49:24;;;;;;;16.75;5.47;;;18.60;99.90;;;;;;5097722;28;20127;-78
2023/07/10 05:51:52;;;;;;;9.85;4.68;;;18.70;99.90;;;;;;5089302;28;20040;-77
2023/07/10 05:54:18;;;;;;;10.15;4.80;;;18.80;99.90;;;;;;5079204;28;20492;-76
2023/07/10 05:56:44;;;;;;;13.50;4.97;;;18.80;99.90;;;;;;5080118;28;20033;-77
2023/07/10 05:59:14;;;;;;;9.38;4.50;;;18.90;99.90;;;;;;5084185;28;20543;-77
2023/07/10 06:01:39;;;;;;;10.02;5.07;;;18.80;99.90;;;;;;5108289;27;20036;-76
2023/07/10 06:04:05;;;;;;;9.68;4.80;;;18.90;99.90;;;;;;5108035;28;20050;-76
2023/07/10 06:06:31;;;;;;;9.80;4.93;;;18.90;99.90;;;;;;5082564;28;20046;-78
2023/07/10 06:08:57;;;;;;;12.90;4.38;;;18.80;99.90;;;;;;5059092;28;20040;-77
2023/07/10 06:11:22;;;;;;;17.25;4.35;;;18.80;99.90;;;;;;5077504;28;20043;-77
2023/07/10 06:13:48;;;;;;;10.93;3.90;;;18.80;99.90;;;;;;5091702;28;20060;-77
2023/07/10 06:16:14;;;;;;;8.38;3.80;;;18.90;99.90;;;;;;5096945;28;20040;-77
2023/07/10 06:18:40;;;;;;;13.10;3.72;;;19.00;99.90;;;;;;5096608;28;20176;-76
2023/07/10 06:21:07;;;;;;;13.50;4.00;;;19.00;99.90;;;;;;5093604;28;20043;-76
2023/07/10 06:23:33;;;;;;;9.60;3.85;;;19.00;99.90;;;;;;5094203;28;20050;-77
2023/07/10 06:25:59;;;;;;;9.30;3.53;;;19.10;99.90;;;;;;5093965;28;20059;-76
2023/07/10 06:28:25;;;;;;;10.27;3.92;;;19.10;99.90;;;;;;5079378;28;20482;-76
2023/07/10 06:30:57;;;;;;;13.45;4.13;;;19.20;99.90;;;;;;5087437;28;20036;-77
2023/07/10 06:33:23;;;;;;;14.00;4.22;;;19.30;99.90;;;;;;5088362;28;20054;-77
2023/07/10 06:35:48;;;;;;;9.50;4.00;;;19.30;99.90;;;;;;5086616;28;20044;-78
2023/07/10 06:38:14;;;;;;;13.48;4.32;;;19.20;99.90;;;;;;5090541;28;20046;-78
2023/07/10 06:40:40;;;;;;;10.65;4.18;;;19.20;99.90;;;;;;5077883;28;20033;-77
2023/07/10 06:43:06;;;;;;;10.85;4.13;;;19.20;99.90;;;;;;5088159;28;20036;-77
2023/07/10 06:45:31;;;;;;;12.95;4.30;;;19.30;99.90;;;;;;5098723;28;20088;-78
2023/07/10 06:47:57;;;;;;;11.05;4.05;;;19.50;99.90;;;;;;5100201;28;20040;-77
2023/07/10 06:50:22;;;;;;;12.13;3.92;;;19.70;99.90;;;;;;5097963;28;20075;-78
2023/07/10 06:52:48;;;;;;;14.75;4.00;;;19.80;99.90;;;;;;5085131;28;20051;-78
2023/07/10 06:55:16;;;;;;;10.70;3.92;;;19.90;99.90;;;;;;5098651;28;20044;-78
2023/07/10 06:57:42;;;;;;;11.30;3.97;;;20.00;99.90;;;;;;5094395;28;20040;-78
2023/07/10 07:00:11;;;;;;;11.77;4.22;;;20.10;99.90;;;;;;5094146;28;20508;-78
2023/07/10 07:02:36;;;;;;;13.45;3.95;;;20.10;99.90;;;;;;5078813;28;20149;-79
2023/07/10 07:05:07;;;;;;;12.18;4.15;;;20.20;99.90;;;;;;5084401;28;20044;-79
2023/07/10 07:07:34;;;;;;;9.18;3.83;;;20.40;99.90;;;;;;5097324;28;20550;-78
2023/07/10 07:10:00;;;;;;;13.38;3.80;;;20.50;99.90;;;;;;5094531;28;20048;-78
2023/07/10 07:12:26;;;;;;;13.20;3.63;;;20.60;99.90;;;;;;5082633;28;20036;-78
2023/07/10 07:14:52;;;;;;;18.33;4.95;;;20.70;99.90;;;;;;5091941;28;21702;-78
2023/07/10 07:17:18;;;;;;;13.75;3.88;;;20.80;99.90;;;;;;5084280;28;20137;-78
2023/07/10 07:19:46;;;;;;;7.82;3.42;;;20.90;99.90;;;;;;5083121;28;20044;-77
2023/07/10 07:22:12;;;;;;;14.02;3.50;;;21.00;99.90;;;;;;5093173;28;20061;-78
2023/07/10 07:24:39;;;;;;;9.90;3.88;;;21.00;99.90;;;;;;5090807;28;20406;-78
2023/07/10 07:27:05;;;;;;;7.73;3.40;;;21.20;99.90;;;;;;5095170;28;20181;-79
2023/07/10 07:29:31;;;;;;;14.95;3.40;;;21.30;99.90;;;;;;5097932;28;20508;-79
2023/07/10 07:31:56;;;;;;;11.65;3.08;;;21.30;99.90;;;;;;5090417;28;20115;-78
2023/07/10 07:34:22;;;;;;;9.52;2.90;;;21.30;99.90;;;;;;5091248;28;20052;-78
2023/07/10 07:36:54;;;;;;;8.38;3.00;;;21.30;99.90;;;;;;5094958;28;20048;-78
2023/07/10 07:39:28;;;;;;;14.05;3.60;;;21.20;99.90;;;;;;5093279;28;20032;-79
2023/07/10 07:41:53;;;;;;;13.30;3.88;;;21.30;99.90;;;;;;5088309;28;20055;-77
2023/07/10 07:44:19;;;;;;;10.70;3.47;;;21.40;99.90;;;;;;5101361;28;20036;-77
2023/07/10 07:46:45;;;;;;;9.70;3.35;;;21.50;99.90;;;;;;5096257;28;20047;-78
2023/07/10 07:49:10;;;;;;;9.63;2.88;;;21.60;99.90;;;;;;5089028;28;20405;-79
2023/07/10 07:51:37;;;;;;;16.00;3.50;;;21.50;99.90;;;;;;5089849;28;20041;-79
2023/07/10 07:54:09;;;;;;;10.00;2.88;;;21.60;99.90;;;;;;5076338;28;20149;-77
2023/07/10 07:56:35;;;;;;;12.00;3.67;;;21.70;99.90;;;;;;5070995;28;20055;-78
2023/07/10 07:59:01;;;;;;;7.97;2.40;;;21.80;99.90;;;;;;5097155;28;20036;-78
2023/07/10 08:01:27;;;;;;;9.25;3.40;;;21.80;99.90;;;;;;5094794;28;20040;-77
2023/07/10 08:03:53;;;;;;;18.25;3.45;;;21.80;99.90;;;;;;5097805;28;20040;-78
2023/07/10 08:06:19;;;;;;;8.88;2.88;;;21.90;99.90;;;;;;5096186;28;20036;-77
2023/07/10 08:08:45;;;;;;;8.85;2.70;;;22.00;99.90;;;;;;5099350;28;20105;-77
2023/07/10 08:11:11;;;;;;;8.45;3.05;;;22.00;99.90;;;;;;5086473;28;20044;-79
2023/07/10 08:13:36;;;;;;;10.55;3.28;;;21.90;99.90;;;;;;5096951;28;20055;-79
2023/07/10 08:16:02;;;;;;;10.07;2.90;;;21.80;99.90;;;;;;5096004;28;20401;-78
2023/07/10 08:18:28;;;;;;;12.15;3.15;;;21.90;99.90;;;;;;5094148;28;20037;-78
2023/07/10 08:21:20;;;;;;;8.73;2.85;;;21.90;99.90;;;;;;5093913;28;20088;-78
2023/07/10 08:23:46;;;;;;;15.50;3.08;;;22.00;99.90;;;;;;5089142;28;20048;-78
2023/07/10 08:26:12;;;;;;;12.00;2.72;;;21.90;99.90;;;;;;5076584;28;20114;-78
2023/07/10 08:28:37;;;;;;;7.28;2.30;;;21.90;99.90;;;;;;5078476;28;20029;-78
2023/07/10 08:31:03;;;;;;;8.68;2.80;;;22.00;99.90;;;;;;5086111;28;20044;-78
2023/07/10 08:33:29;;;;;;;8.70;2.65;;;22.00;99.90;;;;;;5077705;28;20044;-79
2023/07/10 08:36:02;;;;;;;11.15;2.92;;;22.00;99.90;;;;;;5087151;28;20093;-78
2023/07/10 08:38:28;;;;;;;11.93;2.72;;;22.00;99.90;;;;;;5078774;28;20094;-78
2023/07/10 08:40:57;;;;;;;9.55;2.63;;;22.20;99.90;;;;;;5088621;28;20040;-78
2023/07/10 08:43:22;;;;;;;12.02;3.13;;;22.30;99.90;;;;;;5082508;28;20036;-78
2023/07/10 08:45:48;;;;;;;14.43;4.28;;;22.40;99.90;;;;;;5083378;28;20042;-78
2023/07/10 08:48:25;;;;;;;19.30;3.20;;;22.40;99.90;;;;;;5084343;28;20140;-78
2023/07/10 08:50:51;;;;;;;13.32;3.45;;;22.40;99.90;;;;;;5093411;28;20040;-78
2023/07/10 08:53:24;;;;;;;9.50;3.00;;;22.30;99.90;;;;;;5082995;28;20055;-79
2023/07/10 08:56:10;;;;;;;7.45;2.55;;;22.40;99.90;;;;;;5085025;28;20048;-79
2023/07/10 08:58:38;;;;;;;10.73;2.80;;;22.40;99.90;;;;;;5072600;28;20093;-77
2023/07/10 09:01:11;;;;;;;11.27;2.78;;;22.50;99.90;;;;;;5077942;28;20039;-78
2023/07/10 09:03:49;;;;;;;9.38;2.88;;;22.50;99.90;;;;;;5084926;28;20029;-78
2023/07/10 09:06:20;;;;;;;11.73;2.80;;;22.50;99.90;;;;;;5076052;28;20013;-78
2023/07/10 09:08:54;;;;;;;10.73;3.35;;;22.60;99.90;;;;;;5077802;28;20543;-78
2023/07/10 09:11:21;;;;;;;7.20;2.35;;;22.70;99.90;;;;;;5080779;28;20465;-78
2023/07/10 09:13:52;;;;;;;8.38;2.45;;;22.70;99.90;;;;;;5083029;28;20082;-79
2023/07/10 09:16:20;;;;;;;14.40;3.15;;;22.70;99.90;;;;;;5095146;28;20043;-79
2023/07/10 09:18:52;;;;;;;;;;;22.80;99.90;;;;;;5092818;28;20048;-79
2023/07/10 09:21:21;;;;;;;11.63;3.10;;;22.80;99.90;;;;;;5094106;28;19935;-79
2023/07/10 09:23:48;;;;;;;10.27;3.80;;;23.00;99.90;;;;;;5091137;28;20521;-79
2023/07/10 09:26:20;;;;;;;9.68;3.00;;;23.10;99.90;;;;;;5090857;28;20039;-78
2023/07/10 09:29:19;;;;;;;7.68;2.47;;;23.30;99.90;;;;;;5097517;28;20396;-78
2023/07/10 09:32:06;;;;;;;11.25;2.85;;;23.40;99.90;;;;;;5112155;28;20148;-79
2023/07/10 09:34:34;;;;;;;10.88;3.13;;;23.60;99.90;;;;;;5108755;28;20037;-79
2023/07/10 09:37:02;;;;;;;12.10;3.20;;;23.70;99.90;;;;;;5099620;28;20048;-78
2023/07/10 09:39:30;;;;;;;8.80;3.30;;;23.80;99.90;;;;;;5102798;28;20048;-77
2023/07/10 09:42:01;;;;;;;11.07;2.63;;;23.90;99.90;;;;;;5100189;28;20044;-77
2023/07/10 09:44:37;;;;;;;8.05;2.78;;;24.00;99.90;;;;;;5112945;28;20040;-77
2023/07/10 09:47:09;;;;;;;13.90;2.80;;;24.00;99.90;;;;;;5111600;28;20105;-78
2023/07/10 09:49:40;;;;;;;11.50;3.13;;;24.10;99.90;;;;;;5092027;28;20048;-77
2023/07/10 09:52:22;;;;;;;13.32;3.00;;;24.10;99.90;;;;;;5098846;28;20044;-77
2023/07/10 09:54:56;;;;;;;12.15;3.05;;;24.10;99.90;;;;;;5101758;28;20040;-78
2023/07/10 09:57:21;;;;;;;10.30;3.10;;;24.20;99.90;;;;;;5099224;28;20039;-78
2023/07/10 09:59:55;;;;;;;9.55;2.60;;;24.40;99.90;;;;;;5098507;28;20043;-78
2023/07/10 10:02:32;;;;;;;19.75;3.75;;;24.60;99.90;;;;;;5078075;28;20484;-79
2023/07/10 10:05:23;;;;;;;16.45;3.10;;;24.80;99.90;;;;;;5078888;28;20044;-79
2023/07/10 10:07:59;;;;;;;9.82;3.03;;;24.90;99.90;;;;;;5097971;28;20201;-79
2023/07/10 10:10:28;;;;;;;12.45;3.28;;;25.10;99.90;;;;;;5095488;28;20044;-78
2023/07/10 10:13:21;;;;;;;23.85;3.80;;;25.10;99.90;;;;;;5081701;28;20123;-78
2023/07/10 10:15:53;;;;;;;15.75;4.30;;;24.90;99.90;;;;;;5089308;28;20418;-78
2023/07/10 10:18:34;;;;;;;10.70;3.15;;;24.80;99.90;;;;;;5092966;28;20040;-79
2023/07/10 10:21:01;;;;;;;14.48;3.25;;;24.60;99.90;;;;;;5087502;28;20044;-77
2023/07/10 10:23:33;;;;;;;13.77;3.35;;;24.50;99.90;;;;;;5079638;28;20045;-78
2023/07/10 10:26:11;;;;;;;13.30;3.40;;;24.20;99.90;;;;;;5109446;28;20089;-77
2023/07/10 10:28:48;;;;;;;12.80;3.45;;;24.20;99.90;;;;;;5091953;28;20406;-78
2023/07/10 10:31:19;;;;;;;11.38;3.40;;;24.40;99.90;;;;;;5091254;28;20044;-79
2023/07/10 10:34:06;;;;;;;10.55;3.10;;;24.50;99.90;;;;;;5093712;28;20355;-78
2023/07/10 10:37:15;;;;;;;11.57;3.90;;;24.50;99.90;;;;;;5080910;28;20044;-79
2023/07/10 10:39:58;;;;;;;10.70;2.67;;;24.60;99.90;;;;;;5060432;28;20080;-78
2023/07/10 10:42:27;;;;;;;11.82;3.33;;;24.60;99.90;;;;;;5084047;28;20048;-78
2023/07/10 10:45:01;;;;;;;9.02;2.90;;;24.50;99.90;;;;;;5081602;28;20514;-78
2023/07/10 10:47:40;;;;;;;12.80;2.80;;;24.40;99.90;;;;;;5096804;28;20123;-78
2023/07/10 10:50:21;;;;;;;12.25;3.45;;;24.60;99.90;;;;;;5088334;28;20081;-78
2023/07/10 10:53:17;;;;;;;14.05;2.80;;;24.80;99.90;;;;;;5090966;28;20040;-77
2023/07/10 10:56:05;;;;;;;13.00;2.60;;;25.10;99.90;;;;;;5057492;28;20092;-77
2023/07/10 10:58:48;;;;;;;11.52;2.97;;;25.10;99.90;;;;;;5090947;28;20040;-77
2023/07/10 11:01:27;;;;;;;12.85;2.67;;;25.30;99.90;;;;;;5085563;28;20421;-78
2023/07/10 11:04:07;;;;;;;12.70;2.90;;;25.50;99.90;;;;;;5092036;28;20044;-78
2023/07/10 11:06:46;;;;;;;16.42;3.45;;;25.70;99.90;;;;;;5078329;28;20128;-78
2023/07/10 11:09:14;;;;;;;;;;;26.00;99.90;;;;;;5089801;28;20420;-77
2023/07/10 11:11:40;;;;;;;13.35;3.25;;;26.20;99.70;;;;;;5092425;28;20357;-78
2023/07/10 11:14:09;;;;;;;8.83;2.50;;;26.10;99.90;;;;;;5096125;28;20122;-76
2023/07/10 11:16:35;;;;;;;11.75;2.80;;;25.90;98.60;;;;;;5097181;28;20044;-78
2023/07/10 11:19:02;;;;;;;22.42;3.00;;;25.60;98.50;;;;;;5096638;28;20036;-77
2023/07/10 11:21:30;;;;;;;10.63;2.70;;;25.40;99.90;;;;;;5093585;28;20426;-78
2023/07/10 11:23:56;;;;;;;10.93;3.33;;;25.60;99.90;;;;;;5087527;28;20161;-77
2023/07/10 11:26:26;;;;;;;8.60;2.63;;;25.90;99.90;;;;;;5099422;28;20071;-78
2023/07/10 11:29:16;;;;;;;10.77;2.25;;;26.30;99.90;;;;;;5077391;28;20041;-77
2023/07/10 11:31:42;;;;;;;6.40;2.40;;;26.60;99.80;;;;;;5086615;28;20052;-77
2023/07/10 11:34:07;;;;;;;13.93;3.22;;;26.90;99.00;;;;;;5079313;28;20052;-78
2023/07/10 11:36:33;;;;;;;11.93;2.92;;;27.10;99.50;;;;;;5084339;28;20039;-78
2023/07/10 11:39:11;;;;;;;9.85;2.83;;;27.30;97.50;;;;;;5084289;28;20047;-77
2023/07/10 11:41:38;;;;;;;;;;;27.30;95.30;;;;;;5085983;28;20478;-78
2023/07/10 11:44:28;;;;;;;9.07;2.10;;;27.00;94.70;;;;;;5115109;28;20393;-78
2023/07/10 11:47:04;;;;;;;9.98;2.70;;;26.50;95.30;;;;;;5093051;28;20041;-78
2023/07/10 11:49:51;;;;;;;11.43;2.28;;;26.30;94.90;;;;;;5094472;28;20028;-77
2023/07/10 11:52:17;;;;;;;7.72;2.42;;;26.20;94.10;;;;;;5074962;28;20055;-78
2023/07/10 11:54:58;;;;;;;10.13;2.22;;;26.10;94.10;;;;;;5091591;28;20036;-77
2023/07/10 11:57:27;;;;;;;10.07;2.58;;;26.20;94.50;;;;;;5086866;28;20572;-78
2023/07/10 11:59:58;;;;;;;11.15;3.13;;;26.30;96.30;;;;;;5105379;28;20095;-79
2023/07/10 12:02:31;;;;;;;13.35;3.28;;;26.50;96.90;;;;;;5084866;28;20051;-76
2023/07/10 12:05:02;;;;;;;12.23;2.47;;;26.60;95.40;;;;;;5095502;28;20115;-78
2023/07/10 12:07:28;;;;;;;9.15;2.58;;;26.60;93.10;;;;;;5098044;28;20043;-78
2023/07/10 12:09:59;;;;;;;15.93;2.47;;;26.50;93.30;;;;;;5088779;28;20542;-78
2023/07/10 12:12:30;;;;;;;10.60;2.40;;;26.50;93.50;;;;;;5076489;28;20170;-78
2023/07/10 12:14:59;;;;;;;10.35;2.33;;;26.40;93.40;;;;;;5092286;28;20047;-77
2023/07/10 12:17:28;;;;;;;9.65;2.40;;;26.20;93.40;;;;;;5091350;28;20093;-77
2023/07/10 12:19:54;;;;;;;7.65;2.10;;;26.00;92.50;;;;;;5087603;28;20151;-77
2023/07/10 12:22:25;;;;;;;9.48;2.22;;;25.80;93.00;;;;;;5081075;28;20424;-78
2023/07/10 12:24:58;;;;;;;5.45;1.90;;;25.50;93.00;;;;;;5085969;28;20036;-78
2023/07/10 12:27:24;;;;;;;7.80;2.40;;;25.50;94.20;;;;;;5077542;28;20045;-78
2023/07/10 12:29:52;;;;;;;12.60;2.20;;;25.80;94.10;;;;;;5076411;28;20032;-78
2023/07/10 12:32:19;;;;;;;8.45;2.53;;;25.90;94.30;;;;;;5078026;28;20067;-78
2023/07/10 12:34:46;;;;;;;12.88;2.53;;;25.80;93.70;;;;;;5089847;28;20049;-76
2023/07/10 12:37:14;;;;;;;10.35;2.17;;;25.60;94.60;;;;;;5076322;28;20443;-77
2023/07/10 12:39:42;;;;;;;9.88;2.17;;;25.40;95.10;;;;;;5080554;28;20036;-76
2023/07/10 12:42:23;;;;;;;7.30;2.70;;;25.30;94.60;;;;;;5097313;28;20032;-78
2023/07/10 12:44:48;;;;;;;7.35;2.38;;;25.50;95.20;;;;;;5097650;28;20059;-77
2023/07/10 12:47:14;;;;;;;7.10;2.10;;;25.60;93.30;;;;;;5090588;28;20048;-77